createdAt,value
2022-12-31T00:00:57.800Z,9.00
2022-12-31T00:03:33.307Z,9.30
2022-12-31T00:06:15.780Z,8.50
2022-12-31T00:08:48.268Z,8.80
2022-12-31T00:11:20.471Z,8.50
2022-12-31T00:13:54.003Z,10.30
2022-12-31T00:16:27.983Z,8.20
2022-12-31T00:19:01.062Z,9.30
2022-12-31T00:21:34.087Z,8.60
2022-12-31T00:24:09.044Z,8.70
2022-12-31T00:26:40.833Z,8.90
2022-12-31T00:29:13.297Z,6.10
2022-12-31T00:31:45.246Z,8.10
2022-12-31T00:34:17.136Z,8.60
2022-12-31T00:36:48.909Z,7.70
2022-12-31T00:39:20.767Z,8.40
2022-12-31T00:41:52.491Z,8.70
2022-12-31T00:44:24.661Z,7.70
2022-12-31T00:46:56.404Z,9.10
2022-12-31T00:49:28.142Z,8.30
2022-12-31T00:52:00.148Z,8.50
2022-12-31T00:54:32.499Z,7.90
2022-12-31T00:57:04.328Z,7.70
2022-12-31T00:59:36.146Z,8.30
2022-12-31T01:02:08.163Z,8.10
2022-12-31T01:04:40.371Z,8.10
2022-12-31T01:07:12.125Z,7.10
2022-12-31T01:09:44.771Z,8.10
2022-12-31T01:14:47.126Z,7.60
2022-12-31T01:17:19.212Z,8.10
2022-12-31T01:19:51.004Z,7.40
2022-12-31T01:22:22.767Z,8.40
2022-12-31T01:24:55.379Z,8.60
2022-12-31T01:27:27.410Z,7.30
2022-12-31T01:30:01.458Z,7.20
2022-12-31T01:32:33.510Z,7.60
2022-12-31T01:35:05.687Z,7.00
2022-12-31T01:37:37.478Z,7.80
2022-12-31T01:40:11.345Z,7.10
2022-12-31T01:42:43.069Z,7.60
2022-12-31T01:45:16.580Z,7.30
2022-12-31T01:47:52.299Z,6.80
2022-12-31T01:50:26.978Z,7.60
2022-12-31T01:53:01.811Z,7.10
2022-12-31T01:55:39.100Z,7.80
2022-12-31T01:58:15.591Z,7.70
2022-12-31T02:00:48.659Z,6.10
2022-12-31T02:03:21.413Z,6.40
2022-12-31T02:08:26.511Z,6.60
2022-12-31T02:10:58.207Z,6.20
2022-12-31T02:13:30.290Z,6.30
2022-12-31T02:16:12.131Z,6.10
2022-12-31T02:18:49.826Z,6.80
2022-12-31T02:21:45.750Z,6.40
2022-12-31T02:24:49.235Z,6.20
2022-12-31T02:27:33.310Z,6.10
2022-12-31T02:30:10.788Z,6.40
2022-12-31T02:32:57.173Z,6.40
2022-12-31T02:35:33.908Z,6.40
2022-12-31T02:38:10.076Z,6.20
2022-12-31T02:40:42.689Z,6.20
2022-12-31T02:43:14.378Z,7.60
2022-12-31T02:45:51.678Z,6.10
2022-12-31T02:48:35.094Z,6.80
2022-12-31T02:51:26.009Z,6.40
2022-12-31T02:54:13.587Z,6.80
2022-12-31T02:56:52.940Z,8.40
2022-12-31T02:59:51.117Z,7.90
2022-12-31T03:02:26.278Z,6.40
2022-12-31T03:05:02.099Z,6.20
2022-12-31T03:07:34.865Z,6.70
2022-12-31T03:12:51.118Z,6.80
2022-12-31T03:15:25.270Z,6.40
2022-12-31T03:18:00.937Z,6.00
2022-12-31T03:20:53.422Z,7.20
2022-12-31T03:23:27.700Z,7.50
2022-12-31T03:26:00.637Z,6.20
2022-12-31T03:28:32.930Z,6.40
2022-12-31T03:31:06.176Z,6.90
2022-12-31T03:33:42.604Z,6.40
2022-12-31T03:36:16.409Z,6.90
2022-12-31T03:38:52.560Z,6.20
2022-12-31T03:41:24.717Z,6.60
2022-12-31T03:43:56.949Z,5.80
2022-12-31T03:46:28.599Z,5.90
2022-12-31T03:49:00.305Z,4.70
2022-12-31T03:51:32.175Z,6.00
2022-12-31T03:54:04.241Z,4.10
2022-12-31T03:56:35.881Z,5.90
2022-12-31T03:59:07.643Z,5.90
2022-12-31T04:01:39.711Z,4.10
2022-12-31T04:04:11.692Z,5.50
2022-12-31T04:06:43.505Z,5.60
2022-12-31T04:09:15.365Z,5.90
2022-12-31T04:11:47.058Z,5.80
2022-12-31T04:14:18.985Z,6.40
2022-12-31T04:16:51.023Z,6.20
2022-12-31T04:19:22.962Z,6.70
2022-12-31T04:21:54.750Z,5.40
2022-12-31T04:24:26.497Z,6.00
2022-12-31T04:27:03.589Z,5.60
2022-12-31T04:29:38.993Z,6.80
2022-12-31T04:32:11.605Z,4.10
2022-12-31T04:34:43.570Z,5.70
2022-12-31T04:37:15.379Z,5.50
2022-12-31T04:39:47.151Z,6.60
2022-12-31T04:42:18.881Z,5.80
2022-12-31T04:44:50.691Z,6.10
2022-12-31T04:47:23.969Z,6.00
2022-12-31T04:49:56.095Z,5.90
2022-12-31T04:52:28.166Z,4.70
2022-12-31T04:54:59.925Z,6.10
2022-12-31T04:57:31.772Z,6.70
2022-12-31T05:00:04.061Z,6.30
2022-12-31T05:02:36.177Z,6.60
2022-12-31T05:05:09.774Z,6.20
2022-12-31T05:07:41.771Z,6.70
2022-12-31T05:10:13.484Z,6.90
2022-12-31T05:12:45.157Z,7.00
2022-12-31T05:15:17.043Z,8.30
2022-12-31T05:17:48.730Z,7.20
2022-12-31T05:20:20.916Z,5.30
2022-12-31T05:22:52.722Z,7.30
2022-12-31T05:25:24.590Z,6.50
2022-12-31T05:27:56.328Z,5.00
2022-12-31T05:30:28.130Z,4.90
2022-12-31T05:33:00.187Z,6.60
2022-12-31T05:35:32.000Z,4.70
2022-12-31T05:38:04.810Z,8.50
2022-12-31T05:40:36.789Z,8.00
2022-12-31T05:43:08.557Z,8.10
2022-12-31T05:45:40.397Z,6.80
2022-12-31T05:48:12.411Z,6.80
2022-12-31T05:50:44.839Z,6.90
2022-12-31T05:53:16.498Z,6.70
2022-12-31T05:55:49.334Z,7.40
2022-12-31T05:58:21.158Z,6.00
2022-12-31T06:00:54.757Z,6.40
2022-12-31T06:03:27.826Z,6.30
2022-12-31T06:06:01.931Z,6.80
2022-12-31T06:08:33.729Z,6.40
2022-12-31T06:11:05.770Z,5.80
2022-12-31T06:13:37.490Z,6.60
2022-12-31T06:16:10.543Z,5.90
2022-12-31T06:18:42.341Z,6.00
2022-12-31T06:21:15.869Z,5.20
2022-12-31T06:23:47.632Z,6.40
2022-12-31T06:26:19.348Z,6.40
2022-12-31T06:28:50.959Z,6.20
2022-12-31T06:31:22.757Z,5.80
2022-12-31T06:33:54.799Z,5.20
2022-12-31T06:36:27.118Z,6.10
2022-12-31T06:38:59.001Z,6.20
2022-12-31T06:41:32.526Z,4.30
2022-12-31T06:44:04.304Z,6.10
2022-12-31T06:46:36.075Z,3.30
2022-12-31T06:49:07.964Z,2.60
2022-12-31T06:51:39.706Z,6.20
2022-12-31T06:54:11.437Z,6.10
2022-12-31T06:56:44.606Z,6.20
2022-12-31T06:59:26.448Z,6.80
2022-12-31T07:02:09.366Z,6.10
2022-12-31T07:05:01.198Z,6.40
2022-12-31T07:07:37.378Z,6.00
2022-12-31T07:10:27.289Z,6.30
2022-12-31T07:13:16.097Z,5.40
2022-12-31T07:15:57.348Z,6.10
2022-12-31T07:18:41.125Z,6.30
2022-12-31T07:21:16.536Z,5.80
2022-12-31T07:23:49.205Z,5.80
2022-12-31T07:26:33.806Z,5.40
2022-12-31T07:29:13.377Z,5.80
2022-12-31T07:32:01.070Z,5.70
2022-12-31T07:34:45.747Z,5.60
2022-12-31T07:37:29.113Z,6.40
2022-12-31T07:40:10.975Z,7.00
2022-12-31T07:42:58.882Z,7.80
2022-12-31T07:45:38.122Z,7.30
2022-12-31T07:48:22.382Z,6.30
2022-12-31T07:50:57.001Z,7.00
2022-12-31T07:53:29.660Z,7.20
2022-12-31T07:56:04.360Z,7.10
2022-12-31T07:58:52.121Z,6.40
2022-12-31T08:01:35.420Z,7.10
2022-12-31T08:04:15.961Z,6.70
2022-12-31T08:06:55.591Z,6.60
2022-12-31T08:09:39.870Z,7.10
2022-12-31T08:12:12.030Z,6.90
2022-12-31T08:14:46.303Z,8.20
2022-12-31T08:17:20.768Z,9.00
2022-12-31T08:19:54.016Z,9.00
2022-12-31T08:22:46.565Z,9.10
2022-12-31T08:25:27.095Z,8.00
2022-12-31T08:28:27.641Z,7.80
2022-12-31T08:31:05.706Z,8.60
2022-12-31T08:33:45.761Z,9.10
2022-12-31T08:36:28.151Z,7.80
2022-12-31T08:39:07.604Z,9.30
2022-12-31T08:41:45.101Z,9.00
2022-12-31T08:44:25.107Z,9.40
2022-12-31T08:47:05.348Z,8.40
2022-12-31T08:49:38.392Z,8.60
2022-12-31T08:52:17.142Z,8.70
2022-12-31T08:54:49.679Z,8.50
2022-12-31T08:57:28.137Z,8.00
2022-12-31T09:00:06.771Z,8.20
2022-12-31T09:03:03.879Z,8.30
2022-12-31T09:05:48.241Z,9.00
2022-12-31T09:08:29.363Z,9.30
2022-12-31T09:11:08.040Z,9.90
2022-12-31T09:14:07.469Z,9.30
2022-12-31T09:16:49.638Z,10.30
2022-12-31T09:19:21.554Z,12.60
2022-12-31T09:21:54.299Z,9.60
2022-12-31T09:24:27.252Z,10.30
2022-12-31T09:27:14.274Z,9.30
2022-12-31T09:29:53.743Z,8.40
2022-12-31T09:32:37.084Z,7.00
2022-12-31T09:35:17.921Z,5.80
2022-12-31T09:37:51.953Z,6.60
2022-12-31T09:40:47.101Z,5.70
2022-12-31T09:43:45.889Z,5.00
2022-12-31T09:46:49.574Z,5.50
2022-12-31T09:50:01.043Z,5.10
2022-12-31T09:52:47.079Z,4.70
2022-12-31T09:55:36.658Z,5.60
2022-12-31T09:58:25.845Z,4.90
2022-12-31T10:01:05.100Z,5.10
2022-12-31T10:03:49.996Z,4.80
2022-12-31T10:06:30.230Z,5.60
2022-12-31T10:09:22.914Z,4.90
2022-12-31T10:12:07.123Z,6.50
2022-12-31T10:14:53.897Z,5.20
2022-12-31T10:17:39.306Z,19.10
2022-12-31T10:20:48.037Z,12.40
2022-12-31T10:23:50.512Z,10.80
2022-12-31T10:26:46.194Z,7.40
2022-12-31T10:29:35.870Z,7.10
2022-12-31T10:32:19.069Z,5.10
2022-12-31T10:35:02.134Z,5.80
2022-12-31T10:40:25.960Z,5.20
2022-12-31T10:43:28.204Z,5.00
2022-12-31T10:46:41.040Z,4.70
2022-12-31T10:49:29.462Z,4.20
2022-12-31T10:52:39.875Z,4.70
2022-12-31T10:55:49.058Z,4.00
2022-12-31T10:58:50.610Z,4.10
2022-12-31T11:01:33.747Z,3.30
2022-12-31T11:04:37.169Z,3.60
2022-12-31T11:10:40.998Z,3.90
2022-12-31T11:13:44.359Z,3.70
2022-12-31T11:19:02.989Z,3.40
2022-12-31T11:21:49.042Z,3.20
2022-12-31T11:24:37.175Z,3.40
2022-12-31T11:27:24.709Z,7.10
2022-12-31T11:30:23.692Z,16.50
2022-12-31T11:33:10.220Z,4.70
2022-12-31T11:35:58.017Z,3.50
2022-12-31T11:38:34.863Z,3.50
2022-12-31T11:41:12.652Z,3.90
2022-12-31T11:44:03.451Z,2.90
2022-12-31T11:46:52.156Z,4.00
2022-12-31T11:49:38.771Z,3.90
2022-12-31T11:52:32.365Z,3.40
2022-12-31T11:55:29.945Z,3.80
2022-12-31T11:58:12.584Z,5.40
2022-12-31T12:00:52.307Z,3.50
2022-12-31T12:03:25.018Z,4.60
2022-12-31T12:08:32.336Z,3.50
2022-12-31T12:11:09.740Z,4.00
2022-12-31T12:13:41.480Z,3.60
2022-12-31T12:16:14.230Z,4.90
2022-12-31T12:18:48.343Z,4.00
2022-12-31T12:21:22.407Z,3.90
2022-12-31T12:23:59.799Z,4.00
2022-12-31T12:26:37.923Z,4.10
2022-12-31T12:29:17.895Z,3.80
2022-12-31T12:31:59.754Z,4.20
2022-12-31T12:34:33.425Z,3.40
2022-12-31T12:37:06.006Z,3.20
2022-12-31T12:39:38.020Z,3.70
2022-12-31T12:42:13.750Z,4.10
2022-12-31T12:44:45.545Z,2.80
2022-12-31T12:47:19.460Z,2.90
2022-12-31T12:49:55.278Z,2.80
2022-12-31T12:52:46.389Z,2.90
2022-12-31T12:55:26.731Z,2.70
2022-12-31T12:58:10.751Z,3.10
2022-12-31T13:00:51.586Z,2.70
2022-12-31T13:04:07.401Z,2.70
2022-12-31T13:06:46.864Z,2.60
2022-12-31T13:09:30.498Z,2.60
2022-12-31T13:12:13.263Z,2.70
2022-12-31T13:14:55.267Z,3.10
2022-12-31T13:17:42.666Z,2.90
2022-12-31T13:20:22.833Z,2.90
2022-12-31T13:23:05.144Z,2.90
2022-12-31T13:25:48.664Z,2.30
2022-12-31T13:28:23.932Z,3.00
2022-12-31T13:31:06.582Z,3.20
2022-12-31T13:33:48.087Z,3.00
2022-12-31T13:36:25.451Z,3.00
2022-12-31T13:39:00.461Z,2.70
2022-12-31T13:41:37.506Z,2.80
2022-12-31T13:44:17.525Z,2.70
2022-12-31T13:46:55.106Z,3.10
2022-12-31T13:49:31.538Z,3.30
2022-12-31T13:52:15.646Z,2.70
2022-12-31T13:54:56.964Z,2.60
2022-12-31T13:57:50.261Z,3.60
2022-12-31T14:00:29.796Z,2.60
2022-12-31T14:03:12.812Z,3.10
2022-12-31T14:08:20.675Z,2.60
2022-12-31T14:11:13.631Z,2.80
2022-12-31T14:14:00.480Z,2.80
2022-12-31T14:16:42.315Z,3.60
2022-12-31T14:19:31.133Z,4.00
2022-12-31T14:22:11.708Z,3.10
2022-12-31T14:24:47.701Z,4.00
2022-12-31T14:27:23.933Z,3.10
2022-12-31T14:30:00.538Z,3.00
2022-12-31T14:33:06.447Z,3.40
2022-12-31T14:35:55.054Z,3.10
2022-12-31T14:38:44.963Z,3.50
2022-12-31T14:41:33.073Z,3.60
2022-12-31T14:44:18.575Z,3.50
2022-12-31T14:47:04.799Z,3.50
2022-12-31T14:49:47.753Z,3.70
2022-12-31T14:55:20.671Z,4.10
2022-12-31T14:58:26.559Z,3.60
2022-12-31T15:00:56.680Z,3.10
2022-12-31T15:03:42.997Z,3.20
2022-12-31T15:06:39.719Z,3.30
2022-12-31T15:09:34.326Z,3.30
2022-12-31T15:12:20.641Z,3.90
2022-12-31T15:15:16.792Z,4.00
2022-12-31T15:18:02.740Z,3.60
2022-12-31T15:21:11.771Z,3.70
2022-12-31T15:23:46.095Z,3.20
2022-12-31T15:26:25.878Z,3.20
2022-12-31T15:29:04.624Z,3.50
2022-12-31T15:31:46.256Z,3.60
2022-12-31T15:34:29.510Z,3.90
2022-12-31T15:37:03.476Z,4.50
2022-12-31T15:39:47.808Z,3.80
2022-12-31T15:42:38.655Z,4.40
2022-12-31T15:45:19.781Z,3.80
2022-12-31T15:47:59.016Z,3.50
2022-12-31T15:50:31.920Z,4.00
2022-12-31T15:53:07.408Z,4.30
2022-12-31T15:55:47.062Z,4.50
2022-12-31T15:58:21.863Z,4.10
2022-12-31T16:01:04.027Z,4.30
2022-12-31T16:03:36.961Z,4.00
2022-12-31T16:08:47.732Z,4.20
2022-12-31T16:11:21.916Z,4.30
2022-12-31T16:13:56.665Z,3.40
2022-12-31T16:16:31.487Z,3.90
2022-12-31T16:19:05.006Z,4.10
2022-12-31T16:21:39.434Z,4.80
2022-12-31T16:24:31.207Z,4.40
2022-12-31T16:27:06.602Z,4.30
2022-12-31T16:29:43.756Z,4.00
2022-12-31T16:32:18.679Z,3.80
2022-12-31T16:34:51.231Z,3.40
2022-12-31T16:37:24.462Z,2.90
2022-12-31T16:40:24.100Z,3.70
2022-12-31T16:42:55.969Z,4.20
2022-12-31T16:45:35.910Z,4.60
2022-12-31T16:48:18.626Z,4.70
2022-12-31T16:50:53.493Z,4.00
2022-12-31T16:53:29.898Z,4.00
2022-12-31T16:56:08.827Z,4.20
2022-12-31T16:58:45.096Z,22.00
2022-12-31T17:01:28.868Z,6.50
2022-12-31T17:04:04.508Z,5.40
2022-12-31T17:06:36.693Z,5.70
2022-12-31T17:09:14.875Z,5.70
2022-12-31T17:11:50.554Z,5.90
2022-12-31T17:14:24.443Z,4.60
2022-12-31T17:17:03.711Z,5.30
2022-12-31T17:19:42.867Z,4.60
2022-12-31T17:22:31.545Z,5.10
2022-12-31T17:25:16.086Z,6.20
2022-12-31T17:27:56.913Z,8.60
2022-12-31T17:30:42.621Z,5.70
2022-12-31T17:33:32.215Z,5.30
2022-12-31T17:36:23.280Z,5.30
2022-12-31T17:38:55.308Z,5.60
2022-12-31T17:41:29.037Z,5.40
2022-12-31T17:44:01.101Z,6.40
2022-12-31T17:46:37.156Z,5.20
2022-12-31T17:49:15.052Z,6.40
2022-12-31T17:51:47.847Z,5.00
2022-12-31T17:54:21.118Z,5.90
2022-12-31T17:56:54.585Z,5.20
2022-12-31T17:59:29.708Z,5.90
2022-12-31T18:02:04.570Z,5.80
2022-12-31T18:04:36.683Z,6.10
2022-12-31T18:07:08.445Z,7.20
2022-12-31T18:09:40.570Z,6.20
2022-12-31T18:13:19.639Z,7.70
2022-12-31T18:15:29.942Z,7.00
2022-12-31T18:18:01.713Z,6.70
2022-12-31T18:20:33.728Z,6.30
2022-12-31T18:23:05.490Z,6.80
2022-12-31T18:28:11.838Z,5.80
2022-12-31T18:30:44.408Z,6.00
2022-12-31T18:36:08.131Z,6.50
2022-12-31T18:38:40.534Z,6.90
2022-12-31T18:41:19.528Z,6.20
2022-12-31T18:43:52.003Z,7.00
2022-12-31T18:46:26.936Z,6.40
2022-12-31T18:48:58.660Z,6.30
2022-12-31T18:51:32.357Z,6.30
2022-12-31T18:54:05.832Z,5.30
2022-12-31T18:56:43.273Z,6.20
2022-12-31T18:59:18.458Z,5.60
2022-12-31T19:01:50.393Z,6.10
2022-12-31T19:04:27.715Z,5.20
2022-12-31T19:07:00.701Z,4.90
2022-12-31T19:09:51.402Z,5.10
2022-12-31T19:12:25.031Z,5.20
2022-12-31T19:14:57.135Z,4.60
2022-12-31T19:17:28.831Z,4.40
2022-12-31T19:20:04.335Z,4.40
2022-12-31T19:22:36.385Z,5.40
2022-12-31T19:25:19.301Z,4.20
2022-12-31T19:30:26.683Z,4.20
2022-12-31T19:32:58.801Z,4.70
2022-12-31T19:35:30.593Z,4.40
2022-12-31T19:38:03.425Z,4.30
2022-12-31T19:40:35.398Z,4.70
2022-12-31T19:43:07.747Z,4.20
2022-12-31T19:45:41.390Z,4.80
2022-12-31T19:48:16.055Z,4.20
2022-12-31T19:50:49.970Z,4.10
2022-12-31T19:53:23.925Z,4.10
2022-12-31T19:55:56.315Z,4.90
2022-12-31T19:58:28.763Z,6.00
2022-12-31T20:01:03.466Z,5.70
2022-12-31T20:03:35.731Z,5.10
2022-12-31T20:06:10.058Z,5.00
2022-12-31T20:08:43.831Z,5.00
2022-12-31T20:11:17.975Z,4.60
2022-12-31T20:13:52.265Z,4.20
2022-12-31T20:16:29.568Z,5.30
2022-12-31T20:19:01.983Z,4.60
2022-12-31T20:21:34.316Z,5.00
2022-12-31T20:24:06.838Z,4.40
2022-12-31T20:26:38.674Z,4.70
2022-12-31T20:29:10.907Z,5.40
2022-12-31T20:31:42.783Z,5.50
2022-12-31T20:34:14.820Z,5.00
2022-12-31T20:36:46.624Z,4.30
2022-12-31T20:39:18.434Z,5.00
2022-12-31T20:41:50.500Z,5.50
2022-12-31T20:44:22.469Z,5.10
2022-12-31T20:46:54.308Z,4.90
2022-12-31T20:49:52.229Z,4.90
2022-12-31T20:52:18.053Z,4.30
2022-12-31T20:54:49.995Z,4.20
2022-12-31T20:57:21.720Z,5.40
2022-12-31T20:59:53.406Z,5.20
2022-12-31T21:02:40.257Z,5.20
2022-12-31T21:05:14.173Z,4.60
2022-12-31T21:07:46.443Z,4.60
2022-12-31T21:10:18.342Z,5.00
2022-12-31T21:12:53.659Z,5.20
2022-12-31T21:15:25.992Z,3.80
2022-12-31T21:17:59.290Z,4.60
2022-12-31T21:20:31.281Z,4.40
2022-12-31T21:23:03.114Z,8.10
2022-12-31T21:25:35.574Z,4.20
2022-12-31T21:28:07.715Z,5.10
2022-12-31T21:30:40.883Z,4.40
2022-12-31T21:33:12.625Z,4.40
2022-12-31T21:35:51.851Z,5.00
2022-12-31T21:38:25.813Z,4.90
2022-12-31T21:41:02.381Z,4.30
2022-12-31T21:43:34.359Z,5.60
2022-12-31T21:46:08.353Z,4.10
2022-12-31T21:48:40.263Z,4.40
2022-12-31T21:51:14.175Z,4.50
2022-12-31T21:53:46.013Z,4.30
2022-12-31T21:56:18.795Z,4.20
2022-12-31T21:59:09.067Z,4.30
2022-12-31T22:01:59.048Z,4.40
2022-12-31T22:07:23.448Z,4.80
2022-12-31T22:09:55.500Z,4.40
2022-12-31T22:12:27.343Z,4.00
2022-12-31T22:15:14.178Z,4.90
2022-12-31T22:17:48.443Z,4.70
2022-12-31T22:20:29.307Z,4.70
2022-12-31T22:23:01.791Z,5.10
2022-12-31T22:25:35.891Z,4.60
2022-12-31T22:28:37.466Z,4.90
2022-12-31T22:31:02.317Z,4.90
2022-12-31T22:33:34.651Z,4.50
2022-12-31T22:36:09.154Z,4.50
2022-12-31T22:38:40.915Z,4.80
2022-12-31T22:41:14.920Z,5.20
2022-12-31T22:43:49.571Z,5.50
2022-12-31T22:46:23.997Z,4.80
2022-12-31T22:49:00.314Z,4.10
2022-12-31T22:51:54.728Z,4.30
2022-12-31T22:54:25.832Z,5.30
2022-12-31T22:56:57.655Z,5.10
2022-12-31T22:59:29.483Z,4.90
2022-12-31T23:02:01.246Z,5.70
2022-12-31T23:04:33.096Z,8.70
2022-12-31T23:07:04.973Z,15.20
2022-12-31T23:09:54.623Z,22.00
2022-12-31T23:12:26.766Z,33.00
2022-12-31T23:15:16.205Z,33.40
2022-12-31T23:18:05.688Z,38.00
2022-12-31T23:20:56.678Z,40.70
2022-12-31T23:23:28.535Z,41.10
2022-12-31T23:26:03.201Z,38.50
2022-12-31T23:28:34.997Z,31.50
2022-12-31T23:31:10.196Z,27.40
2022-12-31T23:33:42.049Z,23.50
2022-12-31T23:36:14.865Z,21.70
2022-12-31T23:38:46.654Z,20.30
2022-12-31T23:41:21.086Z,20.30
2022-12-31T23:43:53.030Z,17.50
2022-12-31T23:46:24.941Z,16.60
2022-12-31T23:48:56.747Z,14.60
2022-12-31T23:51:28.902Z,12.10
2022-12-31T23:54:00.884Z,6.90
2022-12-31T23:56:32.959Z,9.00
2022-12-31T23:59:04.763Z,8.70
